Time;durP1;ratioP1;P1;durP2;ratioP2;P2;SDS_P1;SDS_P2;PMS_P1;PMS_P2;Temp;Humidity;BMP_temperature;BMP_pressure;BME280_temperature;BME280_humidity;BME280_pressure;Samples;Min_cycle;Max_cycle;Signal;HPM_P1;HPM_P2
2023/03/01 00:00:46;;;;;;;23.30;8.73;;;-1.20;1.00;;;;;;5187429;28;20064;-68
2023/03/01 00:03:19;;;;;;;19.27;9.73;;;-1.30;4.80;;;;;;5207464;28;20049;-69
2023/03/01 00:05:55;;;;;;;21.77;9.95;;;-1.30;11.10;;;;;;5184473;28;20068;-69
2023/03/01 00:08:31;;;;;;;17.30;8.88;;;-1.30;10.70;;;;;;5159557;28;20096;-68
2023/03/01 00:11:21;;;;;;;20.27;9.82;;;-1.30;14.40;;;;;;5205022;28;20033;-69
2023/03/01 00:14:00;;;;;;;24.05;10.25;;;-1.30;9.10;;;;;;5196866;28;20045;-68
2023/03/01 00:16:41;;;;;;;21.20;9.43;;;-1.30;18.10;;;;;;5205390;28;20045;-70
2023/03/01 00:19:19;;;;;;;17.75;9.57;;;-1.30;37.50;;;;;;5175491;28;20044;-69
2023/03/01 00:21:52;;;;;;;20.98;9.95;;;-1.30;72.90;;;;;;5191264;28;20553;-69
2023/03/01 00:24:26;;;;;;;18.70;9.88;;;-1.30;14.30;;;;;;5172770;28;20049;-70
2023/03/01 00:26:58;;;;;;;17.65;10.82;;;-1.40;1.00;;;;;;5196009;28;20053;-69
2023/03/01 00:29:29;;;;;;;19.60;9.55;;;-1.40;5.20;;;;;;5179721;28;20055;-69
2023/03/01 00:32:06;;;;;;;26.85;10.35;;;-1.40;1.00;;;;;;5171122;28;20056;-69
2023/03/01 00:34:37;;;;;;;19.88;10.88;;;-1.40;1.00;;;;;;5207341;28;20424;-69
2023/03/01 00:37:09;;;;;;;21.42;10.95;;;-1.40;1.00;;;;;;5192476;28;20326;-70
2023/03/01 00:39:43;;;;;;;23.63;10.40;;;-1.40;1.00;;;;;;5192188;28;20037;-69
2023/03/01 00:42:15;;;;;;;;;;;-1.40;1.00;;;;;;5209079;28;20034;-70
2023/03/01 00:44:52;;;;;;;25.98;10.05;;;-1.40;1.00;;;;;;5208171;28;19917;-70
2023/03/01 00:47:29;;;;;;;20.07;10.47;;;-1.40;1.00;;;;;;5190100;28;20029;-70
2023/03/01 00:50:00;;;;;;;16.55;9.65;;;-1.40;1.00;;;;;;5193143;28;20044;-71
2023/03/01 00:52:37;;;;;;;17.30;9.98;;;-1.40;1.00;;;;;;5177689;28;20100;-69
2023/03/01 00:55:09;;;;;;;16.90;9.45;;;-1.40;1.00;;;;;;5209072;28;20049;-66
2023/03/01 00:57:41;;;;;;;24.17;11.75;;;-1.50;1.00;;;;;;5175085;28;20055;-69
2023/03/01 01:03:07;;;;;;;21.33;10.35;;;-1.60;1.00;;;;;;5131037;28;20068;-69
2023/03/01 01:05:38;;;;;;;;;;;-1.50;1.00;;;;;;5110143;28;20039;-68
2023/03/01 01:08:12;;;;;;;16.90;8.88;;;-1.40;4.30;;;;;;5116293;28;20445;-68
2023/03/01 01:10:49;;;;;;;20.38;9.60;;;-1.40;1.00;;;;;;5132975;28;20033;-68
2023/03/01 01:13:25;;;;;;;19.25;9.18;;;-1.30;1.00;;;;;;5132328;28;20261;-70
2023/03/01 01:16:04;;;;;;;22.60;11.40;;;-1.20;1.00;;;;;;5147621;28;20041;-69
2023/03/01 01:18:37;;;;;;;23.88;10.77;;;-1.20;61.00;;;;;;5131899;28;20034;-67
2023/03/01 01:21:14;;;;;;;20.70;11.23;;;-1.10;42.60;;;;;;5132954;28;20031;-67
2023/03/01 01:23:46;;;;;;;20.33;11.27;;;-1.10;22.00;;;;;;5116033;28;20050;-68
2023/03/01 01:26:33;;;;;;;21.10;11.57;;;-1.00;1.00;;;;;;5116203;28;20041;-70
2023/03/01 01:29:06;;;;;;;25.90;11.65;;;-0.80;1.00;;;;;;5116306;28;20049;-72
2023/03/01 01:31:39;;;;;;;24.85;11.13;;;-0.70;1.00;;;;;;5146399;28;20212;-70
2023/03/01 01:34:21;;;;;;;22.27;11.00;;;-0.60;1.00;;;;;;5117160;28;20038;-69
2023/03/01 01:37:02;;;;;;;22.48;11.27;;;-0.50;1.00;;;;;;5116215;28;20294;-68
2023/03/01 01:39:35;;;;;;;18.50;10.63;;;-0.40;1.00;;;;;;5122686;28;20043;-73
2023/03/01 01:42:18;;;;;;;20.20;10.88;;;-0.30;1.00;;;;;;5116907;28;20034;-67
2023/03/01 01:45:34;;;;;;;27.65;11.90;;;-0.20;1.00;;;;;;5117560;28;20049;-70
2023/03/01 01:48:18;;;;;;;23.23;12.00;;;-0.10;1.00;;;;;;5107559;28;20035;-67
2023/03/01 01:51:00;;;;;;;20.40;10.93;;;0.00;1.00;;;;;;5112997;29;20042;-69
2023/03/01 01:53:31;;;;;;;21.95;11.88;;;0.10;1.00;;;;;;5103519;29;20053;-69
2023/03/01 01:56:06;;;;;;;25.63;11.05;;;0.10;1.00;;;;;;5130936;28;20059;-70
2023/03/01 01:58:42;;;;;;;20.80;10.88;;;0.10;1.00;;;;;;5142498;28;20069;-69
2023/03/01 02:01:14;;;;;;;22.25;10.52;;;0.20;1.00;;;;;;5127413;28;20047;-69
2023/03/01 02:03:51;;;;;;;22.48;11.45;;;0.20;1.00;;;;;;5117349;28;20516;-68
2023/03/01 02:06:34;;;;;;;18.90;10.93;;;0.30;1.00;;;;;;5142588;28;20518;-70
2023/03/01 02:09:13;;;;;;;18.30;10.43;;;0.30;1.00;;;;;;5133135;28;20038;-68
2023/03/01 02:11:45;;;;;;;22.30;11.57;;;0.50;1.00;;;;;;5130985;28;20596;-67
2023/03/01 02:14:26;;;;;;;21.15;11.05;;;0.50;1.00;;;;;;5134566;28;20062;-68
2023/03/01 02:17:00;;;;;;;19.25;10.60;;;0.60;1.00;;;;;;5132622;28;20053;-69
2023/03/01 02:19:57;;;;;;;23.77;11.30;;;0.70;1.00;;;;;;5119057;28;20164;-70
2023/03/01 02:22:32;;;;;;;22.05;11.30;;;0.80;1.00;;;;;;5131465;28;20265;-69
2023/03/01 02:25:06;;;;;;;;;;;0.90;1.00;;;;;;5127505;28;20065;-70
2023/03/01 02:28:17;;;;;;;18.42;10.57;;;1.00;1.00;;;;;;5134887;28;20387;-68
2023/03/01 02:33:48;;;;;;;21.38;10.60;;;0.90;1.00;;;;;;5136519;28;20125;-67
2023/03/01 02:36:26;;;;;;;20.48;10.10;;;0.90;1.00;;;;;;5136579;28;20351;-68
2023/03/01 02:39:07;;;;;;;22.50;11.15;;;0.90;1.00;;;;;;5134514;28;20039;-69
2023/03/01 02:41:42;;;;;;;20.90;11.13;;;0.90;1.00;;;;;;5134685;28;20045;-69
2023/03/01 02:44:17;;;;;;;24.02;12.20;;;0.80;1.00;;;;;;5118331;28;20045;-69
2023/03/01 02:46:58;;;;;;;;;;;0.90;1.00;;;;;;5131559;28;20050;-69
2023/03/01 02:49:36;;;;;;;21.52;10.45;;;0.80;1.00;;;;;;5133642;28;19910;-69
2023/03/01 02:52:16;;;;;;;18.23;9.73;;;0.80;1.00;;;;;;5137948;28;20048;-69
2023/03/01 02:55:10;;;;;;;22.35;11.05;;;0.60;1.00;;;;;;5128590;28;20422;-68
2023/03/01 02:57:52;;;;;;;21.70;10.57;;;0.50;1.00;;;;;;5134956;28;20051;-67
2023/03/01 03:00:35;;;;;;;18.88;9.93;;;0.50;1.00;;;;;;5138930;28;20365;-68
2023/03/01 03:03:13;;;;;;;23.15;9.85;;;0.50;1.00;;;;;;5119488;28;20049;-65
2023/03/01 03:05:48;;;;;;;19.17;10.27;;;0.60;1.00;;;;;;5135700;28;20080;-67
2023/03/01 03:08:23;;;;;;;19.58;10.70;;;0.60;1.00;;;;;;5149367;28;20037;-67
2023/03/01 03:10:55;;;;;;;20.75;11.30;;;0.70;1.00;;;;;;5149348;28;20053;-69
2023/03/01 03:13:32;;;;;;;21.58;11.00;;;0.70;1.00;;;;;;5132752;28;20019;-69
2023/03/01 03:16:04;;;;;;;21.58;11.45;;;0.60;1.00;;;;;;5132145;28;20039;-69
2023/03/01 03:18:38;;;;;;;21.98;11.13;;;0.50;1.00;;;;;;5116774;28;20094;-68
2023/03/01 03:21:12;;;;;;;16.50;9.23;;;0.40;1.00;;;;;;5132518;28;20053;-68
2023/03/01 03:23:46;;;;;;;20.23;11.52;;;0.40;1.00;;;;;;5132189;28;20043;-69
2023/03/01 03:26:17;;;;;;;22.30;11.55;;;0.40;1.00;;;;;;5133147;28;20053;-69
2023/03/01 03:28:49;;;;;;;23.35;11.60;;;0.40;1.00;;;;;;5134954;28;20035;-69
2023/03/01 03:31:23;;;;;;;22.58;10.32;;;0.40;1.00;;;;;;5116515;28;20046;-68
2023/03/01 03:33:55;;;;;;;23.80;11.20;;;0.40;1.00;;;;;;5096446;29;20051;-69
2023/03/01 03:36:27;;;;;;;24.60;11.48;;;0.40;1.00;;;;;;5131182;28;20038;-68
2023/03/01 03:38:59;;;;;;;20.35;11.23;;;0.30;1.00;;;;;;5148684;28;20444;-66
2023/03/01 03:41:30;;;;;;;16.40;9.82;;;0.40;1.00;;;;;;5133458;28;20362;-69
2023/03/01 03:44:06;;;;;;;21.33;10.18;;;0.40;1.00;;;;;;5148470;28;20034;-66
2023/03/01 03:46:40;;;;;;;25.55;11.75;;;0.50;1.00;;;;;;5126090;28;20043;-70
2023/03/01 03:49:14;;;;;;;26.52;11.30;;;0.50;1.00;;;;;;5097080;29;20069;-66
2023/03/01 03:51:46;;;;;;;24.60;12.15;;;0.50;1.00;;;;;;5124534;28;20240;-69
2023/03/01 03:54:18;;;;;;;23.92;11.38;;;0.50;1.00;;;;;;5131418;28;20340;-68
2023/03/01 03:56:51;;;;;;;21.27;11.27;;;0.50;1.00;;;;;;5122022;28;20110;-70
2023/03/01 03:59:28;;;;;;;18.80;10.80;;;0.50;1.00;;;;;;5144175;28;20516;-69
2023/03/01 04:02:00;;;;;;;24.88;11.50;;;0.60;1.00;;;;;;5113624;28;20052;-68
2023/03/01 04:04:37;;;;;;;21.98;11.15;;;0.70;1.00;;;;;;5141193;28;20047;-67
2023/03/01 04:07:16;;;;;;;22.25;11.40;;;0.80;1.00;;;;;;5101651;28;20361;-67
2023/03/01 04:09:50;;;;;;;24.48;12.30;;;0.80;1.00;;;;;;5132013;28;20041;-67
2023/03/01 04:12:24;;;;;;;21.52;11.52;;;0.80;1.00;;;;;;5133491;28;20034;-66
2023/03/01 04:14:55;;;;;;;26.08;12.50;;;0.90;1.00;;;;;;5116016;28;20053;-68
2023/03/01 04:17:27;;;;;;;22.90;13.05;;;0.90;1.00;;;;;;5116033;28;20034;-68
2023/03/01 04:19:58;;;;;;;18.00;10.15;;;0.90;1.00;;;;;;5153114;28;20052;-68
2023/03/01 04:22:35;;;;;;;23.55;12.20;;;0.90;1.00;;;;;;5154550;28;20242;-69
2023/03/01 04:25:13;;;;;;;25.15;12.00;;;0.90;1.00;;;;;;5137237;28;20374;-67
2023/03/01 04:27:49;;;;;;;24.13;12.40;;;0.90;1.00;;;;;;5137114;28;20042;-69
2023/03/01 04:30:25;;;;;;;22.48;12.30;;;0.80;1.00;;;;;;5114518;28;20480;-67
2023/03/01 04:32:56;;;;;;;24.33;12.80;;;0.90;1.00;;;;;;5132870;28;20035;-69
2023/03/01 04:35:31;;;;;;;23.88;11.95;;;0.80;1.00;;;;;;5113626;28;20051;-68
2023/03/01 04:38:07;;;;;;;23.35;11.77;;;0.80;1.00;;;;;;5114155;28;20050;-68
2023/03/01 04:40:39;;;;;;;25.38;11.65;;;0.80;1.00;;;;;;5129937;28;20060;-66
2023/03/01 04:43:14;;;;;;;26.48;12.57;;;0.80;1.00;;;;;;5146741;28;20042;-66
2023/03/01 04:45:51;;;;;;;28.75;13.38;;;0.80;1.00;;;;;;5112838;28;20045;-69
2023/03/01 04:48:22;;;;;;;27.85;13.27;;;0.70;1.00;;;;;;5147243;28;20046;-67
2023/03/01 04:50:57;;;;;;;23.63;12.25;;;0.70;1.00;;;;;;5114874;28;20327;-69
2023/03/01 04:53:32;;;;;;;24.95;12.35;;;0.70;1.00;;;;;;5131569;28;20156;-69
2023/03/01 04:56:07;;;;;;;25.52;12.60;;;0.80;1.00;;;;;;5133637;28;20050;-69
2023/03/01 04:58:42;;;;;;;34.38;16.05;;;0.80;1.00;;;;;;5127213;28;20041;-68
2023/03/01 05:01:21;;;;;;;34.17;16.92;;;0.80;1.00;;;;;;5116265;28;20041;-67
2023/03/01 05:03:53;;;;;;;29.35;14.50;;;0.90;1.00;;;;;;5134025;28;20512;-67
2023/03/01 05:06:30;;;;;;;27.00;13.57;;;1.00;1.00;;;;;;5120304;28;20136;-70
2023/03/01 05:09:06;;;;;;;26.33;13.93;;;1.00;1.00;;;;;;5127112;28;20053;-68
2023/03/01 05:11:44;;;;;;;28.25;13.23;;;1.10;1.00;;;;;;5137996;28;20030;-67
2023/03/01 05:14:18;;;;;;;25.48;12.55;;;1.10;1.00;;;;;;5115217;28;20047;-67
2023/03/01 05:16:50;;;;;;;;;;;1.20;1.00;;;;;;5136627;28;20065;-69
2023/03/01 05:19:22;;;;;;;25.80;12.45;;;1.20;1.00;;;;;;5120441;28;19910;-69
2023/03/01 05:22:06;;;;;;;24.80;12.48;;;1.20;1.00;;;;;;5104022;28;20047;-67
2023/03/01 05:24:40;;;;;;;22.33;12.03;;;1.20;1.00;;;;;;5121170;28;20288;-69
2023/03/01 05:27:17;;;;;;;23.27;13.55;;;1.30;1.00;;;;;;5124733;28;20049;-67
2023/03/01 05:29:48;;;;;;;24.77;13.85;;;1.30;1.00;;;;;;5130089;28;20181;-67
2023/03/01 05:32:23;;;;;;;25.13;13.60;;;1.20;1.00;;;;;;5128501;28;20552;-67
2023/03/01 05:34:54;;;;;;;26.17;12.20;;;1.20;1.00;;;;;;5130720;28;20061;-68
2023/03/01 05:37:31;;;;;;;28.92;12.90;;;1.30;1.00;;;;;;5126853;28;20043;-70
2023/03/01 05:40:04;;;;;;;25.60;13.45;;;1.30;1.00;;;;;;5147810;28;20178;-68
2023/03/01 05:42:38;;;;;;;32.25;12.73;;;1.40;1.00;;;;;;5116405;28;20057;-69
2023/03/01 05:45:12;;;;;;;26.45;12.95;;;1.40;1.00;;;;;;5113660;28;20042;-69
2023/03/01 05:47:51;;;;;;;21.50;11.77;;;1.50;1.00;;;;;;5149687;28;20434;-68
2023/03/01 05:50:31;;;;;;;21.15;12.45;;;1.50;1.00;;;;;;5135549;28;20057;-68
2023/03/01 05:53:12;;;;;;;24.58;12.82;;;1.60;1.00;;;;;;5134702;28;20057;-68
2023/03/01 05:55:48;;;;;;;28.52;12.93;;;1.70;1.00;;;;;;5118143;28;20058;-70
2023/03/01 05:58:20;;;;;;;24.00;13.85;;;1.70;1.00;;;;;;5117170;28;20047;-70
2023/03/01 06:00:51;;;;;;;24.25;13.48;;;1.80;1.00;;;;;;5132591;28;20493;-66
2023/03/01 06:03:25;;;;;;;26.35;13.20;;;1.90;28.60;;;;;;5134315;28;20027;-67
2023/03/01 06:06:06;;;;;;;25.20;13.30;;;1.90;97.50;;;;;;5136647;28;20053;-69
2023/03/01 06:08:45;;;;;;;26.15;13.57;;;1.90;99.90;;;;;;5135146;28;20318;-68
2023/03/01 06:11:20;;;;;;;30.52;13.35;;;2.00;99.90;;;;;;5136479;28;20311;-66
2023/03/01 06:13:52;;;;;;;27.05;13.57;;;2.00;99.90;;;;;;5149082;28;20046;-69
2023/03/01 06:16:29;;;;;;;25.67;14.10;;;1.80;99.90;;;;;;5127586;28;20039;-66
2023/03/01 06:19:00;;;;;;;28.17;13.98;;;1.70;99.90;;;;;;5132510;28;20046;-65
2023/03/01 06:21:32;;;;;;;28.90;13.52;;;1.70;99.90;;;;;;5133879;28;20042;-67
2023/03/01 06:24:07;;;;;;;29.92;15.10;;;1.60;99.90;;;;;;5117490;28;20327;-65
2023/03/01 06:26:41;;;;;;;;;;;1.60;99.90;;;;;;5133900;28;20184;-68
2023/03/01 06:29:16;;;;;;;26.23;13.50;;;1.70;99.90;;;;;;5133685;28;19920;-66
2023/03/01 06:31:50;;;;;;;21.80;11.02;;;1.70;99.90;;;;;;5099985;28;20319;-65
2023/03/01 06:34:25;;;;;;;29.35;13.57;;;1.80;99.90;;;;;;5134647;28;20049;-66
2023/03/01 06:36:56;;;;;;;24.35;13.23;;;1.90;99.90;;;;;;5133243;28;20200;-68
2023/03/01 06:39:31;;;;;;;25.35;13.30;;;2.00;99.90;;;;;;5149718;28;20223;-67
2023/03/01 06:42:03;;;;;;;27.25;14.05;;;2.00;99.90;;;;;;5134064;28;20386;-68
2023/03/01 06:44:35;;;;;;;25.45;13.70;;;2.20;99.90;;;;;;5118057;28;20035;-69
2023/03/01 06:47:06;;;;;;;25.42;13.27;;;2.30;99.90;;;;;;5133376;28;20041;-68
2023/03/01 06:49:37;;;;;;;29.63;13.60;;;2.50;99.90;;;;;;5130952;28;20043;-66
2023/03/01 06:52:09;;;;;;;29.20;13.93;;;2.60;99.90;;;;;;5120156;28;20234;-68
2023/03/01 06:54:47;;;;;;;30.30;14.10;;;2.70;99.90;;;;;;5148467;28;20053;-67
2023/03/01 06:57:18;;;;;;;28.95;14.45;;;2.80;99.90;;;;;;5135790;28;20056;-68
2023/03/01 06:59:53;;;;;;;24.77;14.90;;;2.70;99.90;;;;;;5132896;28;20203;-68
2023/03/01 07:02:27;;;;;;;27.48;14.65;;;2.80;99.90;;;;;;5101847;28;20479;-67
2023/03/01 07:04:59;;;;;;;27.88;14.88;;;2.80;99.90;;;;;;5108026;28;20427;-67
2023/03/01 07:07:34;;;;;;;32.25;14.35;;;2.60;99.90;;;;;;5116959;28;20034;-69
2023/03/01 07:10:07;;;;;;;25.65;14.88;;;2.40;99.90;;;;;;5136021;28;20324;-66
2023/03/01 07:12:41;;;;;;;29.42;15.00;;;2.40;99.90;;;;;;5152949;28;20039;-66
2023/03/01 07:15:14;;;;;;;23.98;13.75;;;2.20;99.90;;;;;;5129890;28;20042;-68
2023/03/01 07:18:06;;;;;;;33.55;14.70;;;2.20;99.90;;;;;;5120047;28;20053;-68
2023/03/01 07:21:10;;;;;;;25.83;14.23;;;2.20;99.90;;;;;;5131685;28;20080;-69
2023/03/01 07:23:41;;;;;;;31.17;15.15;;;2.30;99.90;;;;;;5130697;28;20027;-67
2023/03/01 07:26:13;;;;;;;26.80;14.07;;;2.60;99.90;;;;;;5118377;28;20462;-67
2023/03/01 07:28:44;;;;;;;29.50;13.65;;;2.90;99.90;;;;;;5148835;28;20027;-69
2023/03/01 07:31:18;;;;;;;26.92;14.50;;;3.30;99.90;;;;;;5145391;28;20023;-66
2023/03/01 07:33:53;;;;;;;36.85;14.48;;;3.60;99.90;;;;;;5136377;28;20366;-68
2023/03/01 07:36:25;;;;;;;28.33;14.68;;;3.90;99.90;;;;;;5135348;28;20358;-69
2023/03/01 07:38:57;;;;;;;29.85;14.30;;;4.10;99.90;;;;;;5135555;28;20172;-69
2023/03/01 07:41:32;;;;;;;27.30;14.48;;;4.20;99.90;;;;;;5123353;28;20344;-68
2023/03/01 07:44:09;;;;;;;23.92;14.30;;;4.40;99.90;;;;;;5109077;28;20212;-69
2023/03/01 07:46:40;;;;;;;30.13;15.20;;;4.50;99.90;;;;;;5090642;28;20123;-69
2023/03/01 07:49:17;;;;;;;27.33;15.05;;;4.60;99.90;;;;;;5097977;29;20039;-67
2023/03/01 07:51:48;;;;;;;30.42;15.32;;;4.70;99.90;;;;;;5105050;28;20228;-69
2023/03/01 07:54:20;;;;;;;29.80;13.98;;;4.70;99.90;;;;;;5094334;29;20247;-69
2023/03/01 07:56:51;;;;;;;23.75;13.98;;;4.60;99.90;;;;;;5123360;28;20464;-70
2023/03/01 07:59:28;;;;;;;25.48;13.48;;;4.60;99.90;;;;;;5130285;28;20222;-68
2023/03/01 08:02:00;;;;;;;26.92;14.63;;;4.70;99.90;;;;;;5090087;28;20363;-69
2023/03/01 08:04:33;;;;;;;36.95;15.55;;;4.80;99.90;;;;;;5115624;28;20046;-69
2023/03/01 08:07:07;;;;;;;31.20;15.40;;;4.90;99.90;;;;;;5106279;28;20406;-66
2023/03/01 08:09:39;;;;;;;28.50;14.95;;;4.90;99.90;;;;;;5129681;28;20031;-68
2023/03/01 08:12:16;;;;;;;27.75;16.05;;;4.90;99.90;;;;;;5139969;28;20046;-68
2023/03/01 08:14:48;;;;;;;33.50;14.50;;;5.00;99.90;;;;;;5135068;28;20034;-65
2023/03/01 08:17:19;;;;;;;31.42;14.18;;;5.10;99.90;;;;;;5157799;28;20037;-69
2023/03/01 08:19:54;;;;;;;29.05;15.65;;;5.30;99.90;;;;;;5135523;28;20114;-69
2023/03/01 08:22:28;;;;;;;;;;;5.20;99.90;;;;;;5138762;28;20058;-66
2023/03/01 08:24:59;;;;;;;21.37;13.77;;;5.30;99.90;;;;;;5145989;28;19910;-68
2023/03/01 08:27:31;;;;;;;31.13;15.40;;;5.60;99.90;;;;;;5131937;28;20319;-68
2023/03/01 08:30:03;;;;;;;26.80;14.15;;;5.80;99.90;;;;;;5146219;28;20032;-68
2023/03/01 08:32:43;;;;;;;24.75;13.45;;;5.80;99.90;;;;;;5090222;28;20069;-69
2023/03/01 08:35:20;;;;;;;27.08;14.60;;;6.10;99.90;;;;;;5112954;28;20204;-70
2023/03/01 08:37:54;;;;;;;29.15;15.43;;;6.20;99.90;;;;;;5122553;28;20052;-68
2023/03/01 08:40:26;;;;;;;31.60;15.07;;;5.90;99.90;;;;;;5133960;28;20353;-68
2023/03/01 08:43:03;;;;;;;37.42;16.52;;;5.90;99.90;;;;;;5133525;28;20304;-64
2023/03/01 08:45:40;;;;;;;32.63;14.90;;;5.30;99.90;;;;;;5119714;28;20046;-70
2023/03/01 08:48:11;;;;;;;33.28;17.35;;;5.50;99.90;;;;;;5138640;28;20076;-67
2023/03/01 08:50:45;;;;;;;30.52;15.57;;;5.90;99.90;;;;;;5128371;28;20034;-66
2023/03/01 08:53:17;;;;;;;25.23;14.43;;;6.00;99.90;;;;;;5117672;28;20053;-68
2023/03/01 08:55:50;;;;;;;27.02;14.10;;;6.20;99.90;;;;;;5114624;28;20208;-69
2023/03/01 08:58:21;;;;;;;31.58;17.08;;;6.00;99.90;;;;;;5118862;28;20088;-69
2023/03/01 09:00:56;;;;;;;32.25;16.30;;;6.20;99.90;;;;;;5129946;28;20271;-71
2023/03/01 09:03:30;;;;;;;27.15;14.52;;;6.10;99.90;;;;;;5135625;28;20056;-71
2023/03/01 09:06:11;;;;;;;27.38;14.25;;;6.00;99.90;;;;;;5141196;28;20045;-71
2023/03/01 09:08:46;;;;;;;30.67;14.60;;;5.90;99.90;;;;;;5104051;28;20165;-65
2023/03/01 09:11:25;;;;;;;29.10;15.32;;;5.50;99.90;;;;;;5118069;28;20034;-67
2023/03/01 09:14:07;;;;;;;25.45;14.80;;;5.90;99.90;;;;;;5105945;28;20057;-67
2023/03/01 09:16:41;;;;;;;28.45;13.45;;;6.20;99.90;;;;;;5108875;28;20043;-68
2023/03/01 09:19:13;;;;;;;25.52;14.48;;;6.40;99.90;;;;;;5080965;28;20369;-68
2023/03/01 09:21:51;;;;;;;21.40;12.18;;;6.40;99.90;;;;;;5076189;29;20047;-67
2023/03/01 09:24:24;;;;;;;28.30;14.80;;;6.80;99.90;;;;;;5126193;28;20362;-68
2023/03/01 09:26:56;;;;;;;22.42;12.10;;;7.30;99.90;;;;;;5130386;28;20057;-66
2023/03/01 09:29:29;;;;;;;22.38;13.02;;;7.20;99.90;;;;;;5118659;28;20047;-66
2023/03/01 09:32:03;;;;;;;26.63;13.25;;;7.70;99.90;;;;;;5119890;28;20023;-68
2023/03/01 09:35:23;;;;;;;21.58;12.73;;;8.10;99.90;;;;;;5136299;28;20058;-68
2023/03/01 09:37:28;;;;;;;24.73;12.50;;;8.30;99.90;;;;;;5120116;28;20436;-67
2023/03/01 09:40:04;;;;;;;23.90;11.70;;;7.50;99.90;;;;;;5128811;28;20234;-68
2023/03/01 09:43:12;;;;;;;19.55;11.52;;;6.90;99.90;;;;;;5112034;28;20060;-70
2023/03/01 09:46:09;;;;;;;25.42;12.48;;;6.70;99.90;;;;;;5136365;28;20197;-68
2023/03/01 09:49:30;;;;;;;23.83;11.98;;;6.90;99.90;;;;;;5113647;28;20297;-66
2023/03/01 09:52:51;;;;;;;22.23;11.57;;;7.50;99.90;;;;;;5127858;28;20041;-66
2023/03/01 09:55:55;;;;;;;22.83;13.07;;;7.90;99.90;;;;;;5107934;28;20026;-69
2023/03/01 09:59:13;;;;;;;23.48;13.05;;;7.30;99.90;;;;;;5126275;28;20318;-68
2023/03/01 10:02:29;;;;;;;20.77;11.38;;;7.50;99.90;;;;;;5129126;28;20035;-65
2023/03/01 10:06:00;;;;;;;22.63;12.60;;;7.70;99.90;;;;;;5145902;28;20026;-68
2023/03/01 10:09:17;;;;;;;22.55;12.02;;;7.80;99.90;;;;;;5124413;28;20031;-67
2023/03/01 10:12:36;;;;;;;21.58;12.07;;;7.70;99.90;;;;;;5127722;28;20053;-69
2023/03/01 10:15:47;;;;;;;20.02;11.63;;;8.00;99.90;;;;;;5111084;28;20243;-66
2023/03/01 10:18:44;;;;;;;17.67;11.57;;;8.10;99.90;;;;;;5106426;28;20036;-66
2023/03/01 10:21:48;;;;;;;17.05;10.18;;;8.20;99.90;;;;;;5133625;28;20500;-65
2023/03/01 10:24:21;;;;;;;20.60;10.50;;;8.10;99.90;;;;;;5113369;28;20042;-68
2023/03/01 10:27:31;;;;;;;20.45;11.18;;;8.50;99.90;;;;;;5129290;28;20041;-67
2023/03/01 10:30:43;;;;;;;20.70;12.07;;;8.90;99.90;;;;;;5121569;28;20042;-68
2023/03/01 10:33:24;;;;;;;18.95;9.95;;;9.20;99.90;;;;;;5139752;28;20375;-69
2023/03/01 10:35:59;;;;;;;16.38;10.65;;;9.80;99.90;;;;;;5130204;28;20061;-68
2023/03/01 10:38:53;;;;;;;18.60;12.27;;;10.00;99.90;;;;;;5125493;28;20042;-67
2023/03/01 10:41:32;;;;;;;19.90;11.20;;;9.50;1.00;;;;;;5132924;28;20046;-67
2023/03/01 10:44:07;;;;;;;20.90;10.43;;;9.30;83.30;;;;;;5110742;28;20338;-66
2023/03/01 10:46:38;;;;;;;20.90;11.75;;;9.30;1.00;;;;;;5141931;28;20198;-69
2023/03/01 10:49:25;;;;;;;22.67;11.80;;;8.70;88.80;;;;;;5129769;28;20137;-69
2023/03/01 10:52:21;;;;;;;21.83;12.32;;;8.90;99.90;;;;;;5095736;29;20238;-69
2023/03/01 10:55:20;;;;;;;19.83;10.88;;;8.70;45.90;;;;;;5122914;28;20039;-67
2023/03/01 10:58:20;;;;;;;21.35;11.32;;;9.20;1.00;;;;;;5115211;28;20042;-68
2023/03/01 11:01:06;;;;;;;18.95;10.30;;;9.90;99.90;;;;;;5109428;28;20320;-68
2023/03/01 11:03:43;;;;;;;19.45;12.15;;;10.50;99.90;;;;;;5111529;28;20389;-67
2023/03/01 11:06:22;;;;;;;18.73;10.73;;;10.10;1.00;;;;;;5117992;28;20062;-69
2023/03/01 11:08:54;;;;;;;20.92;12.50;;;9.80;1.00;;;;;;5115334;28;20353;-67
2023/03/01 11:11:34;;;;;;;20.92;11.73;;;9.70;1.00;;;;;;5137828;28;20046;-69
2023/03/01 11:14:28;;;;;;;18.05;10.65;;;10.00;99.90;;;;;;5148833;28;20302;-69
2023/03/01 11:17:15;;;;;;;21.92;11.65;;;10.10;5.40;;;;;;5088045;28;20402;-69
2023/03/01 11:20:12;;;;;;;18.77;11.32;;;10.80;1.00;;;;;;5123005;28;20315;-68
2023/03/01 11:23:09;;;;;;;18.60;11.20;;;10.90;1.00;;;;;;5110311;28;20163;-68
2023/03/01 11:25:58;;;;;;;17.10;10.27;;;10.80;1.00;;;;;;5108397;28;20046;-68
2023/03/01 11:28:40;;;;;;;17.83;10.45;;;11.50;1.00;;;;;;5115333;28;20506;-68
2023/03/01 11:31:16;;;;;;;23.75;11.70;;;11.00;1.00;;;;;;5119357;28;20046;-67
2023/03/01 11:34:10;;;;;;;18.85;10.90;;;11.10;1.00;;;;;;5108362;29;20049;-68
2023/03/01 11:36:54;;;;;;;19.63;11.67;;;11.90;1.00;;;;;;5089306;28;20060;-68
2023/03/01 11:39:45;;;;;;;15.33;9.73;;;12.50;99.90;;;;;;5096060;28;20598;-68
2023/03/01 11:42:46;;;;;;;15.80;11.13;;;12.60;1.00;;;;;;5137810;28;20046;-67
2023/03/01 11:45:19;;;;;;;19.15;11.20;;;12.10;99.90;;;;;;5138118;28;20036;-66
2023/03/01 11:48:41;;;;;;;15.73;10.32;;;11.80;1.00;;;;;;5090434;28;20035;-69
2023/03/01 11:51:30;;;;;;;16.30;10.60;;;11.40;1.00;;;;;;5106220;28;20112;-66
2023/03/01 11:54:25;;;;;;;20.20;10.80;;;11.70;99.90;;;;;;5111580;29;20027;-68
2023/03/01 11:57:51;;;;;;;18.00;10.75;;;11.40;99.90;;;;;;5112286;28;20299;-70
2023/03/01 12:00:49;;;;;;;21.30;11.02;;;10.90;99.90;;;;;;5007967;29;20636;-66
2023/03/01 12:03:37;;;;;;;21.63;11.35;;;10.50;39.60;;;;;;4990672;29;20399;-69
2023/03/01 12:06:32;;;;;;;22.05;11.48;;;10.50;1.00;;;;;;4993303;29;20045;-68
2023/03/01 12:09:43;;;;;;;19.35;11.48;;;10.90;28.60;;;;;;5025914;29;20113;-70
2023/03/01 12:12:41;;;;;;;22.05;11.63;;;10.90;1.00;;;;;;5003428;29;20045;-68
2023/03/01 12:15:35;;;;;;;18.33;10.90;;;10.90;1.00;;;;;;5023779;29;20043;-68
2023/03/01 12:18:46;;;;;;;17.30;10.90;;;11.50;99.90;;;;;;5006507;29;20052;-70
2023/03/01 12:21:55;;;;;;;18.95;10.45;;;11.60;99.90;;;;;;4998783;29;20053;-67
2023/03/01 12:25:12;;;;;;;17.35;10.88;;;11.00;53.60;;;;;;4979034;29;20412;-68
2023/03/01 12:28:03;;;;;;;20.88;10.95;;;10.80;99.90;;;;;;5023081;29;20053;-68
2023/03/01 12:31:05;;;;;;;18.77;11.15;;;10.80;99.90;;;;;;4997540;29;20535;-68
2023/03/01 12:34:03;;;;;;;18.50;10.70;;;11.10;99.90;;;;;;5006316;29;20064;-69
2023/03/01 12:37:13;;;;;;;17.45;11.80;;;11.20;1.00;;;;;;5067062;28;20039;-69
2023/03/01 12:40:41;;;;;;;17.83;10.77;;;10.80;1.00;;;;;;5085589;28;20057;-67
2023/03/01 12:43:34;;;;;;;19.17;11.70;;;10.80;1.00;;;;;;5028415;29;20040;-69
2023/03/01 12:46:35;;;;;;;15.05;10.77;;;10.60;1.00;;;;;;5065581;29;20415;-69
2023/03/01 12:49:17;;;;;;;20.02;11.77;;;10.40;99.90;;;;;;5037018;29;20048;-69
2023/03/01 12:52:39;;;;;;;17.30;11.13;;;10.20;99.90;;;;;;5079844;29;20039;-67
2023/03/01 12:55:28;;;;;;;16.52;10.75;;;10.50;99.90;;;;;;5051167;29;20066;-67
2023/03/01 12:58:30;;;;;;;18.02;11.63;;;11.00;1.00;;;;;;5090764;28;20059;-70
2023/03/01 13:01:14;;;;;;;19.45;10.40;;;10.70;5.20;;;;;;5046300;29;20056;-68
2023/03/01 13:04:10;;;;;;;18.48;11.05;;;11.00;1.00;;;;;;5044932;29;20056;-68
2023/03/01 13:06:58;;;;;;;16.05;10.43;;;11.10;99.90;;;;;;5033629;29;20054;-68
2023/03/01 13:10:01;;;;;;;20.02;12.07;;;11.20;17.10;;;;;;5069172;29;20054;-67
2023/03/01 13:12:55;;;;;;;22.02;12.43;;;10.70;1.00;;;;;;5073007;29;20421;-68
2023/03/01 13:15:33;;;;;;;18.23;12.13;;;10.90;1.00;;;;;;5051175;29;20647;-69
2023/03/01 13:18:13;;;;;;;20.33;11.40;;;11.50;1.00;;;;;;5122374;28;20051;-69
2023/03/01 13:20:59;;;;;;;20.38;11.63;;;11.60;1.00;;;;;;5128381;28;20061;-68
2023/03/01 13:23:39;;;;;;;18.02;10.82;;;11.30;1.00;;;;;;5119214;28;20141;-67
2023/03/01 13:26:16;;;;;;;20.70;11.45;;;11.50;99.90;;;;;;5108208;28;20031;-69
2023/03/01 13:28:57;;;;;;;17.15;10.38;;;12.30;99.90;;;;;;5129244;28;20041;-69
2023/03/01 13:31:30;;;;;;;17.08;10.85;;;13.30;1.00;;;;;;5130383;28;20037;-67
2023/03/01 13:34:43;;;;;;;22.13;10.52;;;14.00;1.00;;;;;;5128400;28;20236;-69
2023/03/01 13:37:48;;;;;;;17.65;10.60;;;13.80;1.00;;;;;;5143757;28;20053;-68
2023/03/01 13:40:23;;;;;;;16.55;10.90;;;13.10;1.00;;;;;;5127320;28;20049;-70
2023/03/01 13:43:31;;;;;;;21.98;11.63;;;12.70;1.00;;;;;;5112076;28;20049;-66
2023/03/01 13:46:15;;;;;;;17.17;11.30;;;13.00;1.00;;;;;;5110781;28;20274;-66
2023/03/01 13:48:54;;;;;;;18.75;11.77;;;12.60;1.00;;;;;;5117539;28;20035;-68
2023/03/01 13:51:28;;;;;;;18.58;11.02;;;11.70;99.90;;;;;;5128394;28;20049;-68
2023/03/01 13:54:02;;;;;;;15.73;10.57;;;11.80;1.00;;;;;;5129328;28;20047;-68
2023/03/01 13:56:37;;;;;;;17.48;11.20;;;11.70;1.00;;;;;;5112652;28;20556;-65
2023/03/01 13:59:26;;;;;;;19.02;10.73;;;11.40;1.00;;;;;;5129632;28;20039;-68